createdAt,value
2023-03-15T00:00:14.607Z,94324.00
2023-03-15T00:01:14.597Z,94324.00
2023-03-15T00:02:14.610Z,94324.00
2023-03-15T00:03:14.711Z,94322.00
2023-03-15T00:04:14.651Z,94320.00
2023-03-15T00:05:14.652Z,94320.00
2023-03-15T00:06:14.674Z,94326.00
2023-03-15T00:07:14.670Z,94328.00
2023-03-15T00:08:14.721Z,94332.00
2023-03-15T00:09:14.724Z,94334.00
2023-03-15T00:10:14.735Z,94336.00
2023-03-15T00:11:14.747Z,94342.00
2023-03-15T00:13:14.765Z,94346.00
2023-03-15T00:31:15.488Z,94310.00
2023-03-15T00:32:15.453Z,94310.00
2023-03-15T00:33:15.512Z,94312.00
2023-03-15T00:34:15.517Z,94312.00
2023-03-15T00:35:15.550Z,94316.00
2023-03-15T00:36:15.579Z,94318.00
2023-03-15T00:37:15.574Z,94320.00
2023-03-15T00:38:15.616Z,94320.00
2023-03-15T00:39:15.660Z,94318.00
2023-03-15T00:40:15.688Z,94318.00
2023-03-15T00:41:15.732Z,94320.00
2023-03-15T00:42:15.763Z,94326.00
2023-03-15T00:43:15.799Z,94322.00
2023-03-15T00:44:15.841Z,94322.00
2023-03-15T00:45:15.900Z,94320.00
2023-03-15T00:46:16.052Z,94318.00
2023-03-15T00:47:16.024Z,94314.00
2023-03-15T00:48:16.038Z,94314.00
2023-03-15T00:49:16.091Z,94312.00
2023-03-15T00:50:16.133Z,94314.00
2023-03-15T00:51:16.145Z,94310.00
2023-03-15T00:52:16.182Z,94310.00
2023-03-15T00:53:16.216Z,94310.00
2023-03-15T00:54:16.264Z,94312.00
2023-03-15T00:55:16.296Z,94306.00
2023-03-15T00:57:16.430Z,94302.00
2023-03-15T00:58:16.450Z,94302.00
2023-03-15T00:59:16.463Z,94299.00
2023-03-15T01:00:16.572Z,94295.00
2023-03-15T01:01:16.559Z,94295.00
2023-03-15T01:02:16.623Z,94293.00
2023-03-15T01:03:16.734Z,94293.00
2023-03-15T01:04:16.718Z,94293.00
2023-03-15T01:05:16.737Z,94295.00
2023-03-15T01:06:16.845Z,94295.00
2023-03-15T01:07:16.877Z,94299.00
2023-03-15T01:08:16.953Z,94304.00
2023-03-15T01:09:16.985Z,94302.00
2023-03-15T01:10:16.998Z,94301.00
2023-03-15T01:11:17.062Z,94301.00
2023-03-15T01:12:17.115Z,94297.00
2023-03-15T01:13:17.150Z,94297.00
2023-03-15T01:14:17.194Z,94295.00
2023-03-15T01:15:17.238Z,94295.00
2023-03-15T01:16:17.331Z,94295.00
2023-03-15T01:17:17.311Z,94297.00
2023-03-15T01:18:17.372Z,94297.00
2023-03-15T01:19:17.445Z,94295.00
2023-03-15T01:20:17.453Z,94293.00
2023-03-15T01:21:17.511Z,94291.00
2023-03-15T01:22:17.559Z,94291.00
2023-03-15T01:23:17.580Z,94293.00
2023-03-15T01:24:17.645Z,94293.00
2023-03-15T01:25:17.687Z,94295.00
2023-03-15T01:26:17.728Z,94295.00
2023-03-15T01:27:17.764Z,94297.00
2023-03-15T01:28:17.787Z,94297.00
2023-03-15T01:29:17.837Z,94299.00
2023-03-15T01:30:17.886Z,94299.00
2023-03-15T01:31:17.938Z,94299.00
2023-03-15T01:32:17.985Z,94299.00
2023-03-15T01:33:18.034Z,94299.00
2023-03-15T01:34:18.032Z,94299.00
2023-03-15T01:35:18.087Z,94295.00
2023-03-15T01:36:18.154Z,94293.00
2023-03-15T01:37:18.175Z,94291.00
2023-03-15T01:38:18.244Z,94289.00
2023-03-15T01:39:18.258Z,94287.00
2023-03-15T01:40:18.268Z,94287.00
2023-03-15T01:41:18.284Z,94285.00
2023-03-15T01:42:18.284Z,94285.00
2023-03-15T01:43:18.308Z,94283.00
2023-03-15T01:44:18.304Z,94285.00
2023-03-15T01:45:18.366Z,94283.00
2023-03-15T01:46:18.456Z,94285.00
2023-03-15T01:47:18.444Z,94285.00
2023-03-15T01:48:18.486Z,94285.00
2023-03-15T01:49:18.523Z,94287.00
2023-03-15T01:50:18.579Z,94287.00
2023-03-15T01:51:18.592Z,94285.00
2023-03-15T01:52:18.620Z,94285.00
2023-03-15T01:53:18.620Z,94281.00
2023-03-15T01:54:18.645Z,94279.00
2023-03-15T01:55:18.658Z,94279.00
2023-03-15T01:56:18.698Z,94277.00
2023-03-15T01:57:18.668Z,94277.00
2023-03-15T01:58:18.656Z,94279.00
2023-03-15T01:59:18.683Z,94277.00
2023-03-15T02:00:18.722Z,94277.00
2023-03-15T02:01:18.798Z,94277.00
2023-03-15T02:02:18.761Z,94275.00
2023-03-15T02:03:18.746Z,94275.00
2023-03-15T02:04:18.756Z,94275.00
2023-03-15T02:05:18.753Z,94273.00
2023-03-15T02:06:18.779Z,94273.00
2023-03-15T02:07:18.795Z,94273.00
2023-03-15T02:08:18.885Z,94271.00
2023-03-15T02:09:18.923Z,94271.00
2023-03-15T02:10:18.951Z,94265.00
2023-03-15T02:11:18.969Z,94265.00
2023-03-15T02:12:19.008Z,94263.00
2023-03-15T02:13:19.042Z,94261.00
2023-03-15T02:14:19.095Z,94263.00
2023-03-15T02:15:19.151Z,94265.00
2023-03-15T02:16:19.259Z,94267.00
2023-03-15T02:17:19.229Z,94269.00
2023-03-15T02:18:19.258Z,94273.00
2023-03-15T02:19:19.321Z,94271.00
2023-03-15T02:20:19.395Z,94273.00
2023-03-15T02:21:19.397Z,94279.00
2023-03-15T02:22:19.447Z,94283.00
2023-03-15T02:23:19.472Z,94285.00
2023-03-15T02:24:19.543Z,94291.00
2023-03-15T02:25:19.542Z,94293.00
2023-03-15T02:26:19.559Z,94299.00
2023-03-15T02:27:19.648Z,94301.00
2023-03-15T02:28:19.606Z,94304.00
2023-03-15T02:29:19.608Z,94304.00
2023-03-15T02:30:19.648Z,94312.00
2023-03-15T02:31:19.673Z,94316.00
2023-03-15T02:32:19.662Z,94318.00
2023-03-15T02:33:19.677Z,94324.00
2023-03-15T02:34:19.657Z,94326.00
2023-03-15T02:35:19.680Z,94330.00
2023-03-15T02:36:19.737Z,94334.00
2023-03-15T02:37:19.734Z,94338.00
2023-03-15T02:38:19.734Z,94340.00
2023-03-15T02:39:19.770Z,94344.00
2023-03-15T02:45:19.960Z,94365.00
2023-03-15T02:46:20.024Z,94369.00
2023-03-15T02:47:20.039Z,94373.00
2023-03-15T02:48:20.081Z,94375.00
2023-03-15T02:49:20.119Z,94375.00
2023-03-15T02:50:20.121Z,94381.00
2023-03-15T02:51:20.154Z,94387.00
2023-03-15T02:52:20.159Z,94385.00
2023-03-15T02:53:20.152Z,94385.00
2023-03-15T02:54:20.167Z,94377.00
2023-03-15T02:55:20.191Z,94381.00
2023-03-15T02:56:20.163Z,94394.00
2023-03-15T02:57:20.200Z,94406.00
2023-03-15T02:58:20.196Z,94408.00
2023-03-15T02:59:20.238Z,94414.00
2023-03-15T03:00:20.257Z,94414.00
2023-03-15T03:01:20.346Z,94418.00
2023-03-15T03:02:20.403Z,94420.00
2023-03-15T03:03:20.374Z,94418.00
2023-03-15T03:04:20.427Z,94412.00
2023-03-15T03:05:20.491Z,94414.00
2023-03-15T03:06:20.518Z,94414.00
2023-03-15T03:07:20.571Z,94420.00
2023-03-15T03:08:20.637Z,94422.00
2023-03-15T03:09:20.703Z,94420.00
2023-03-15T03:10:20.758Z,94418.00
2023-03-15T03:11:20.813Z,94422.00
2023-03-15T03:12:20.855Z,94422.00
2023-03-15T03:13:20.874Z,94424.00
2023-03-15T03:14:20.922Z,94422.00
2023-03-15T03:15:20.996Z,94428.00
2023-03-15T03:16:21.060Z,94432.00
2023-03-15T03:17:21.070Z,94433.00
2023-03-15T03:18:21.119Z,94437.00
2023-03-15T03:30:21.676Z,94447.00
2023-03-15T03:31:21.746Z,94445.00
2023-03-15T03:32:21.902Z,94449.00
2023-03-15T03:33:21.833Z,94449.00
2023-03-15T03:34:21.894Z,94449.00
2023-03-15T03:35:21.904Z,94449.00
2023-03-15T03:36:21.953Z,94451.00
2023-03-15T03:37:22.003Z,94457.00
2023-03-15T03:38:22.009Z,94459.00
2023-03-15T03:39:22.102Z,94459.00
2023-03-15T03:40:22.141Z,94461.00
2023-03-15T03:41:22.194Z,94461.00
2023-03-15T03:42:22.228Z,94461.00
2023-03-15T03:43:22.268Z,94461.00
2023-03-15T03:44:22.385Z,94469.00
2023-03-15T03:45:22.397Z,94473.00
2023-03-15T03:46:22.445Z,94475.00
2023-03-15T03:47:22.463Z,94479.00
2023-03-15T03:48:22.576Z,94482.00
2023-03-15T03:49:22.529Z,94484.00
2023-03-15T03:50:22.588Z,94490.00
2023-03-15T03:51:22.662Z,94494.00
2023-03-15T03:52:22.708Z,94496.00
2023-03-15T03:53:22.705Z,94498.00
2023-03-15T03:54:22.789Z,94502.00
2023-03-15T03:55:22.822Z,94494.00
2023-03-15T03:56:22.854Z,94496.00
2023-03-15T03:57:22.899Z,94502.00
2023-03-15T03:58:22.886Z,94506.00
2023-03-15T03:59:22.899Z,94508.00
2023-03-15T04:00:22.956Z,94508.00
2023-03-15T04:01:22.967Z,94508.00
2023-03-15T04:02:22.975Z,94512.00
2023-03-15T04:03:22.951Z,94514.00
2023-03-15T04:04:22.983Z,94516.00
2023-03-15T04:05:23.021Z,94526.00
2023-03-15T04:06:23.106Z,94531.00
2023-03-15T04:07:23.138Z,94535.00
2023-03-15T04:08:23.138Z,94529.00
2023-03-15T04:09:23.205Z,94526.00
2023-03-15T04:31:23.706Z,94594.00
2023-03-15T04:32:23.673Z,94598.00
2023-03-15T04:33:23.643Z,94598.00
2023-03-15T04:34:23.628Z,94598.00
2023-03-15T04:35:23.648Z,94594.00
2023-03-15T04:36:23.808Z,94596.00
2023-03-15T04:37:23.730Z,94594.00
2023-03-15T04:38:23.751Z,94600.00
2023-03-15T04:39:23.776Z,94602.00
2023-03-15T04:40:23.789Z,94608.00
2023-03-15T04:41:23.823Z,94604.00
2023-03-15T04:42:23.869Z,94610.00
2023-03-15T04:43:23.912Z,94612.00
2023-03-15T04:44:23.938Z,94604.00
2023-03-15T04:45:24.016Z,94600.00
2023-03-15T04:47:24.057Z,94606.00
2023-03-15T04:48:24.137Z,94606.00
2023-03-15T04:49:24.227Z,94612.00
2023-03-15T04:50:24.260Z,94616.00
2023-03-15T04:51:24.322Z,94616.00
2023-03-15T04:52:24.391Z,94616.00
2023-03-15T04:53:24.389Z,94616.00
2023-03-15T04:54:24.427Z,94618.00
2023-03-15T04:55:24.418Z,94623.00
2023-03-15T04:56:24.470Z,94629.00
2023-03-15T04:57:24.517Z,94629.00
2023-03-15T04:58:24.541Z,94631.00
2023-03-15T04:59:24.600Z,94626.00
2023-03-15T05:00:24.819Z,94620.00
2023-03-15T05:01:24.663Z,94621.00
2023-03-15T05:02:24.734Z,94626.00
2023-03-15T05:03:24.678Z,94628.00
2023-03-15T05:04:24.725Z,94628.00
2023-03-15T05:05:24.766Z,94628.00
2023-03-15T05:06:24.795Z,94631.00
2023-03-15T05:07:24.793Z,94637.00
2023-03-15T05:08:24.811Z,94641.00
2023-03-15T05:09:24.865Z,94645.00
2023-03-15T05:10:24.870Z,94647.00
2023-03-15T05:11:24.882Z,94647.00
2023-03-15T05:12:24.904Z,94647.00
2023-03-15T05:13:24.928Z,94649.00
2023-03-15T05:14:24.932Z,94651.00
2023-03-15T05:15:25.022Z,94659.00
2023-03-15T05:16:25.007Z,94663.00
2023-03-15T05:17:24.973Z,94666.00
2023-03-15T05:18:25.013Z,94665.00
2023-03-15T05:19:25.030Z,94666.00
2023-03-15T05:20:25.038Z,94670.00
2023-03-15T05:21:25.059Z,94666.00
2023-03-15T05:22:25.067Z,94666.00
2023-03-15T05:23:25.095Z,94663.00
2023-03-15T05:24:25.114Z,94670.00
2023-03-15T05:25:25.097Z,94676.00
2023-03-15T05:26:25.104Z,94680.00
2023-03-15T05:27:25.138Z,94682.00
2023-03-15T05:28:25.150Z,94684.00
2023-03-15T05:29:25.172Z,94692.00
2023-03-15T05:30:25.198Z,94694.00
2023-03-15T05:31:25.226Z,94696.00
2023-03-15T05:32:25.244Z,94700.00
2023-03-15T05:33:25.214Z,94702.00
2023-03-15T05:34:25.250Z,94702.00
2023-03-15T05:35:25.419Z,94702.00
2023-03-15T05:36:25.285Z,94700.00
2023-03-15T05:37:25.280Z,94700.00
2023-03-15T05:38:25.313Z,94696.00
2023-03-15T05:39:25.321Z,94706.00
2023-03-15T05:40:25.366Z,94712.00
2023-03-15T05:41:25.407Z,94718.00
2023-03-15T05:42:25.395Z,94723.00
2023-03-15T05:43:25.416Z,94721.00
2023-03-15T05:44:25.462Z,94723.00
2023-03-15T05:45:25.450Z,94725.00
2023-03-15T05:46:25.462Z,94727.00
2023-03-15T05:47:25.480Z,94729.00
2023-03-15T05:48:25.512Z,94727.00
2023-03-15T05:49:25.552Z,94729.00
2023-03-15T05:50:25.545Z,94729.00
2023-03-15T05:51:26.074Z,94729.00
2023-03-15T05:52:25.576Z,94739.00
2023-03-15T05:53:25.593Z,94739.00
2023-03-15T05:54:25.651Z,94741.00
2023-03-15T05:55:25.616Z,94743.00
2023-03-15T05:56:25.595Z,94745.00
2023-03-15T05:57:25.624Z,94749.00
2023-03-15T05:58:25.620Z,94755.00
2023-03-15T05:59:25.656Z,94757.00
2023-03-15T06:00:25.683Z,94759.00
2023-03-15T06:01:32.688Z,94757.00
2023-03-15T06:02:25.675Z,94757.00
2023-03-15T06:03:25.702Z,94757.00
2023-03-15T06:04:25.723Z,94759.00
2023-03-15T06:05:25.695Z,94760.00
2023-03-15T06:06:25.643Z,94764.00
2023-03-15T06:07:25.629Z,94766.00
2023-03-15T06:08:25.632Z,94766.00
2023-03-15T06:09:25.636Z,94770.00
2023-03-15T06:10:25.619Z,94770.00
2023-03-15T06:11:25.604Z,94774.00
2023-03-15T06:12:25.578Z,94774.00
2023-03-15T06:13:25.618Z,94776.00
2023-03-15T06:14:25.647Z,94778.00
2023-03-15T06:15:25.589Z,94780.00
2023-03-15T06:16:25.570Z,94782.00
2023-03-15T06:17:25.580Z,94784.00
2023-03-15T06:18:25.570Z,94784.00
2023-03-15T06:19:25.554Z,94788.00
2023-03-15T06:20:25.559Z,94788.00
2023-03-15T06:21:25.556Z,94792.00
2023-03-15T06:22:25.541Z,94794.00
2023-03-15T06:23:25.525Z,94798.00
2023-03-15T06:24:25.526Z,94798.00
2023-03-15T06:25:25.512Z,94802.00
2023-03-15T06:26:25.538Z,94807.00
2023-03-15T06:27:25.518Z,94811.00
2023-03-15T06:28:25.531Z,94811.00
2023-03-15T06:29:25.496Z,94815.00
2023-03-15T06:30:25.485Z,94813.00
2023-03-15T06:31:25.477Z,94819.00
2023-03-15T06:32:25.526Z,94815.00
2023-03-15T06:33:25.467Z,94815.00
2023-03-15T06:34:25.476Z,94823.00
2023-03-15T06:35:25.487Z,94829.00
2023-03-15T06:36:25.488Z,94835.00
2023-03-15T06:37:34.652Z,94839.00
2023-03-15T06:38:26.432Z,94841.00
2023-03-15T06:39:26.105Z,94839.00
2023-03-15T06:40:25.524Z,94837.00
2023-03-15T06:41:25.398Z,94837.00
2023-03-15T06:42:25.426Z,94833.00
2023-03-15T06:43:25.405Z,94833.00
2023-03-15T06:44:25.402Z,94835.00
2023-03-15T06:45:25.375Z,94843.00
2023-03-15T06:46:32.638Z,94841.00
2023-03-15T06:47:25.364Z,94845.00
2023-03-15T06:48:25.475Z,94849.00
2023-03-15T06:49:25.359Z,94856.00
2023-03-15T06:50:27.633Z,94858.00
2023-03-15T06:51:25.850Z,94860.00
2023-03-15T06:52:25.344Z,94854.00
2023-03-15T06:53:25.343Z,94854.00
2023-03-15T06:54:25.352Z,94858.00
2023-03-15T06:55:25.305Z,94862.00
2023-03-15T06:56:25.359Z,94862.00
2023-03-15T06:57:25.291Z,94866.00
2023-03-15T06:58:25.325Z,94868.00
2023-03-15T06:59:25.300Z,94870.00
2023-03-15T07:00:25.292Z,94870.00
2023-03-15T07:01:25.339Z,94874.00
2023-03-15T07:02:25.346Z,94876.00
2023-03-15T07:03:25.271Z,94872.00
2023-03-15T07:04:25.399Z,94876.00
2023-03-15T07:05:25.239Z,94880.00
2023-03-15T07:06:25.266Z,94876.00
2023-03-15T07:07:25.310Z,94884.00
2023-03-15T07:08:25.258Z,94894.00
2023-03-15T07:09:25.251Z,94901.00
2023-03-15T07:10:25.234Z,94898.00
2023-03-15T07:11:25.272Z,94903.00
2023-03-15T07:12:25.202Z,94901.00
2023-03-15T07:13:25.198Z,94894.00
2023-03-15T07:14:25.191Z,94894.00
2023-03-15T07:15:25.195Z,94896.00
2023-03-15T07:16:25.210Z,94898.00
2023-03-15T07:17:25.204Z,94900.00
2023-03-15T07:18:25.143Z,94907.00
2023-03-15T07:19:25.150Z,94907.00
2023-03-15T07:20:25.184Z,94917.00
2023-03-15T07:21:25.167Z,94917.00
2023-03-15T07:22:25.138Z,94919.00
2023-03-15T07:23:25.160Z,94925.00
2023-03-15T07:24:25.166Z,94929.00
2023-03-15T07:25:25.112Z,94931.00
2023-03-15T07:26:25.104Z,94933.00
2023-03-15T07:27:25.119Z,94937.00
2023-03-15T07:28:25.101Z,94941.00
2023-03-15T07:29:25.099Z,94943.00
2023-03-15T07:30:25.093Z,94943.00
2023-03-15T07:31:25.173Z,94946.00
2023-03-15T07:32:25.269Z,94948.00
2023-03-15T07:33:25.292Z,94954.00
2023-03-15T07:34:25.276Z,94953.00
2023-03-15T07:35:25.324Z,94953.00
2023-03-15T07:36:25.347Z,94956.00
2023-03-15T07:37:25.679Z,94962.00
2023-03-15T07:38:25.352Z,94964.00
2023-03-15T07:39:25.392Z,94966.00
2023-03-15T07:40:25.396Z,94966.00
2023-03-15T07:41:25.413Z,94970.00
2023-03-15T07:42:25.682Z,94966.00
2023-03-15T07:43:25.528Z,94970.00
2023-03-15T07:44:25.465Z,94962.00
2023-03-15T07:45:25.487Z,94960.00
2023-03-15T07:46:25.548Z,94953.00
2023-03-15T07:47:25.530Z,94962.00
2023-03-15T07:48:25.588Z,94956.00
2023-03-15T07:49:25.585Z,94954.00
2023-03-15T07:50:25.592Z,94954.00
2023-03-15T07:51:25.637Z,94951.00
2023-03-15T07:52:25.643Z,94962.00
2023-03-15T07:53:25.736Z,94968.00
2023-03-15T07:54:27.877Z,94972.00
2023-03-15T07:55:25.716Z,94974.00
2023-03-15T07:56:25.727Z,94970.00
2023-03-15T07:57:28.714Z,94974.00
2023-03-15T07:58:25.700Z,94976.00
2023-03-15T07:59:25.718Z,94978.00
2023-03-15T08:00:25.733Z,94980.00
2023-03-15T08:01:25.682Z,94980.00
2023-03-15T08:02:25.828Z,94980.00
2023-03-15T08:03:25.741Z,94982.00
2023-03-15T08:04:25.681Z,94988.00
2023-03-15T08:05:28.464Z,94974.00
2023-03-15T08:06:25.664Z,94972.00
2023-03-15T08:07:25.667Z,94972.00
2023-03-15T08:08:25.627Z,94980.00
2023-03-15T08:09:25.619Z,94978.00
2023-03-15T08:10:25.601Z,94978.00
2023-03-15T08:11:25.625Z,94980.00
2023-03-15T08:12:25.698Z,94984.00
2023-03-15T08:13:25.619Z,94990.00
2023-03-15T08:14:25.600Z,94992.00
2023-03-15T08:15:25.608Z,94990.00
2023-03-15T08:16:25.626Z,94986.00
2023-03-15T08:17:25.759Z,94986.00
2023-03-15T08:18:25.554Z,94986.00
2023-03-15T08:19:25.560Z,94988.00
2023-03-15T08:20:26.243Z,94986.00
2023-03-15T08:21:25.549Z,94986.00
2023-03-15T08:22:25.552Z,94984.00
2023-03-15T08:23:25.567Z,94988.00
2023-03-15T08:24:25.562Z,94990.00
2023-03-15T08:25:25.510Z,94990.00
2023-03-15T08:26:25.503Z,94990.00
2023-03-15T08:27:25.487Z,94988.00
2023-03-15T08:28:25.522Z,94990.00
2023-03-15T08:29:25.518Z,94992.00
2023-03-15T08:30:25.505Z,94992.00
2023-03-15T08:31:25.527Z,94992.00
2023-03-15T08:32:25.769Z,94990.00
2023-03-15T08:33:25.458Z,94988.00
2023-03-15T08:34:25.467Z,94990.00
2023-03-15T08:35:25.469Z,94988.00
2023-03-15T08:36:25.509Z,94984.00
2023-03-15T08:37:25.671Z,94988.00
2023-03-15T08:38:25.490Z,94986.00
2023-03-15T08:39:25.494Z,94986.00
2023-03-15T08:40:25.539Z,94984.00
2023-03-15T08:41:25.603Z,94986.00
2023-03-15T08:42:25.551Z,94984.00
2023-03-15T08:43:25.590Z,94980.00
2023-03-15T08:44:25.540Z,94982.00
2023-03-15T08:45:25.575Z,94984.00
2023-03-15T08:46:25.659Z,94980.00
2023-03-15T08:47:25.682Z,94980.00
2023-03-15T08:48:25.690Z,94982.00
2023-03-15T08:49:25.674Z,94982.00
2023-03-15T08:50:25.868Z,94982.00
2023-03-15T08:51:25.695Z,94982.00
2023-03-15T08:52:26.716Z,94984.00
2023-03-15T08:53:25.696Z,94993.00
2023-03-15T08:54:25.690Z,94984.00
2023-03-15T08:55:25.660Z,94984.00
2023-03-15T08:56:25.642Z,94984.00
2023-03-15T08:57:25.653Z,94980.00
2023-03-15T08:58:25.693Z,94980.00
2023-03-15T08:59:31.854Z,94976.00
2023-03-15T12:29:28.790Z,94876.00
2023-03-15T12:35:28.345Z,94876.00
2023-03-15T12:36:28.375Z,94876.00
2023-03-15T12:37:28.335Z,94878.00
2023-03-15T12:38:28.310Z,94876.00
2023-03-15T12:39:28.392Z,94876.00
2023-03-15T12:40:28.300Z,94874.00
2023-03-15T12:41:28.304Z,94874.00
2023-03-15T12:42:28.304Z,94878.00
2023-03-15T12:43:28.307Z,94874.00
2023-03-15T12:44:28.269Z,94876.00
2023-03-15T12:45:28.794Z,94874.00
2023-03-15T12:46:28.325Z,94874.00
2023-03-15T12:47:28.253Z,94876.00
2023-03-15T12:48:28.258Z,94876.00
2023-03-15T12:49:28.243Z,94872.00
2023-03-15T12:50:28.209Z,94876.00
2023-03-15T12:51:28.282Z,94878.00
2023-03-15T12:52:28.227Z,94872.00
2023-03-15T12:53:28.219Z,94878.00
2023-03-15T12:54:28.214Z,94878.00
2023-03-15T12:55:28.220Z,94876.00
2023-03-15T12:56:28.193Z,94878.00
2023-03-15T12:57:30.043Z,94876.00
2023-03-15T12:58:28.173Z,94874.00
2023-03-15T12:59:28.180Z,94876.00
2023-03-15T13:00:28.188Z,94876.00
2023-03-15T13:01:28.181Z,94874.00
2023-03-15T13:02:41.830Z,94878.00
2023-03-15T13:03:29.197Z,94880.00
2023-03-15T13:04:28.143Z,94876.00
2023-03-15T13:05:28.163Z,94880.00
2023-03-15T13:06:28.130Z,94878.00
2023-03-15T13:07:28.146Z,94878.00
2023-03-15T13:08:28.138Z,94878.00
2023-03-15T13:09:28.109Z,94876.00
2023-03-15T13:10:30.279Z,94874.00
2023-03-15T13:11:28.104Z,94876.00
2023-03-15T13:12:28.081Z,94872.00
2023-03-15T13:13:28.101Z,94876.00
2023-03-15T13:14:28.077Z,94876.00
2023-03-15T13:15:28.075Z,94880.00
2023-03-15T13:16:28.153Z,94882.00
2023-03-15T13:17:28.064Z,94884.00
2023-03-15T13:18:28.051Z,94882.00
2023-03-15T13:19:28.027Z,94886.00
2023-03-15T13:20:28.057Z,94886.00
2023-03-15T13:21:28.039Z,94886.00
2023-03-15T13:22:28.023Z,94886.00
2023-03-15T13:23:28.055Z,94886.00
2023-03-15T13:24:28.042Z,94886.00
2023-03-15T13:25:28.013Z,94888.00
2023-03-15T13:26:28.002Z,94880.00
2023-03-15T13:27:27.981Z,94888.00
2023-03-15T13:28:27.958Z,94880.00
2023-03-15T13:29:27.979Z,94880.00
2023-03-15T13:30:28.334Z,94882.00
2023-03-15T13:31:30.659Z,94876.00
2023-03-15T13:32:27.961Z,94878.00
2023-03-15T13:33:27.973Z,94876.00
2023-03-15T13:34:27.946Z,94874.00
2023-03-15T13:35:27.980Z,94872.00
2023-03-15T13:36:27.925Z,94872.00
2023-03-15T13:37:27.940Z,94872.00
2023-03-15T13:38:27.938Z,94874.00
2023-03-15T13:39:27.944Z,94874.00
2023-03-15T13:40:27.953Z,94872.00
2023-03-15T13:41:27.932Z,94870.00
2023-03-15T13:42:27.911Z,94874.00
2023-03-15T13:43:27.914Z,94876.00
2023-03-15T13:44:27.914Z,94870.00
2023-03-15T13:45:27.867Z,94872.00
2023-03-15T13:46:27.932Z,94870.00
2023-03-15T13:47:27.900Z,94866.00
2023-03-15T13:48:27.890Z,94864.00
2023-03-15T13:49:27.850Z,94866.00
2023-03-15T13:50:28.306Z,94868.00
2023-03-15T13:51:27.858Z,94870.00
2023-03-15T13:52:27.861Z,94870.00
2023-03-15T13:53:43.208Z,94874.00
2023-03-15T13:54:28.820Z,94876.00
2023-03-15T13:55:28.332Z,94884.00
2023-03-15T13:56:29.484Z,94878.00
2023-03-15T13:57:27.809Z,94880.00
2023-03-15T13:58:27.808Z,94882.00
2023-03-15T13:59:27.771Z,94878.00
2023-03-15T14:00:27.790Z,94880.00
2023-03-15T14:01:27.819Z,94878.00
2023-03-15T14:02:27.831Z,94876.00
2023-03-15T14:03:27.775Z,94876.00
2023-03-15T14:04:27.739Z,94880.00
2023-03-15T14:05:27.765Z,94876.00
2023-03-15T14:06:27.824Z,94880.00
2023-03-15T14:07:27.872Z,94878.00
2023-03-15T14:08:27.903Z,94880.00
2023-03-15T14:09:27.958Z,94886.00
2023-03-15T14:10:28.005Z,94886.00
2023-03-15T14:11:28.003Z,94894.00
2023-03-15T14:12:28.067Z,94894.00
2023-03-15T14:13:28.070Z,94901.00
2023-03-15T14:14:28.073Z,94898.00
2023-03-15T14:15:28.118Z,94901.00
2023-03-15T14:16:28.240Z,94896.00
2023-03-15T14:17:28.197Z,94896.00
2023-03-15T14:18:28.221Z,94901.00
2023-03-15T14:19:28.257Z,94901.00
2023-03-15T14:20:28.850Z,94898.00
2023-03-15T14:21:28.341Z,94894.00
2023-03-15T14:22:28.354Z,94896.00
2023-03-15T14:23:28.393Z,94892.00
2023-03-15T14:24:28.470Z,94896.00
2023-03-15T14:25:28.434Z,94896.00
2023-03-15T14:26:28.434Z,94900.00
2023-03-15T14:27:28.417Z,94903.00
2023-03-15T14:28:28.420Z,94900.00
2023-03-15T14:29:29.368Z,94901.00
2023-03-15T14:30:28.505Z,94896.00
2023-03-15T14:31:28.481Z,94896.00
2023-03-15T14:32:28.761Z,94898.00
2023-03-15T14:33:28.673Z,94903.00
2023-03-15T14:34:28.690Z,94907.00
2023-03-15T14:36:28.580Z,94901.00
2023-03-15T16:45:31.880Z,95037.00
2023-03-15T16:54:40.865Z,95050.00
2023-03-15T16:55:32.688Z,95052.00
2023-03-15T16:56:31.689Z,95050.00
2023-03-15T16:57:31.671Z,95054.00
2023-03-15T16:58:31.660Z,95058.00
2023-03-15T16:59:31.647Z,95060.00
2023-03-15T17:29:31.695Z,95103.00
2023-03-15T17:30:31.757Z,95107.00
2023-03-15T17:31:31.853Z,95105.00
2023-03-15T17:32:31.933Z,95109.00
2023-03-15T17:33:31.935Z,95113.00
2023-03-15T17:34:31.988Z,95109.00
2023-03-15T17:35:32.133Z,95111.00
2023-03-15T17:36:32.117Z,95111.00
2023-03-15T17:37:32.172Z,95113.00
2023-03-15T17:38:32.226Z,95119.00
2023-03-15T17:39:32.336Z,95117.00
2023-03-15T17:40:32.422Z,95121.00
2023-03-15T17:41:32.412Z,95121.00
2023-03-15T17:42:32.470Z,95121.00
2023-03-15T17:43:32.484Z,95123.00
2023-03-15T17:44:32.502Z,95125.00
2023-03-15T17:45:32.525Z,95123.00
2023-03-15T17:46:32.661Z,95123.00
2023-03-15T17:47:32.674Z,95123.00
2023-03-15T17:48:32.740Z,95125.00
2023-03-15T17:49:32.762Z,95119.00
2023-03-15T17:50:32.822Z,95119.00
2023-03-15T17:51:32.872Z,95121.00
2023-03-15T17:52:32.912Z,95121.00
2023-03-15T17:53:33.010Z,95121.00
2023-03-15T17:54:33.064Z,95121.00
2023-03-15T17:55:33.146Z,95119.00
2023-03-15T17:56:33.187Z,95119.00
2023-03-15T17:57:33.846Z,95119.00
2023-03-15T17:58:33.302Z,95115.00
2023-03-15T17:59:33.379Z,95115.00
2023-03-15T18:00:33.458Z,95117.00
2023-03-15T18:01:33.532Z,95119.00
2023-03-15T18:02:33.707Z,95115.00
2023-03-15T18:03:33.620Z,95115.00
2023-03-15T18:04:33.649Z,95117.00
2023-03-15T18:05:33.707Z,95121.00
2023-03-15T18:06:33.767Z,95127.00
2023-03-15T18:07:33.853Z,95133.00
2023-03-15T18:08:33.914Z,95131.00
2023-03-15T18:09:33.917Z,95131.00
2023-03-15T18:10:34.015Z,95131.00
2023-03-15T18:11:34.060Z,95134.00
2023-03-15T18:12:34.111Z,95133.00
2023-03-15T18:13:34.197Z,95131.00
2023-03-15T18:14:34.229Z,95133.00
2023-03-15T18:15:34.314Z,95134.00
2023-03-15T18:16:34.400Z,95136.00
2023-03-15T18:17:34.430Z,95133.00
2023-03-15T18:18:34.476Z,95138.00
2023-03-15T18:19:34.579Z,95136.00
2023-03-15T18:20:34.597Z,95134.00
2023-03-15T18:21:34.660Z,95134.00
2023-03-15T18:22:34.722Z,95136.00
2023-03-15T18:23:34.775Z,95136.00
2023-03-15T18:24:34.815Z,95136.00
2023-03-15T18:25:34.895Z,95140.00
2023-03-15T18:26:34.949Z,95140.00
2023-03-15T18:27:35.001Z,95142.00
2023-03-15T18:28:35.066Z,95140.00
2023-03-15T18:29:35.109Z,95144.00
2023-03-15T18:30:35.166Z,95146.00
2023-03-15T18:31:35.264Z,95144.00
2023-03-15T18:32:35.274Z,95142.00
2023-03-15T18:33:35.283Z,95146.00
2023-03-15T18:34:35.396Z,95144.00
2023-03-15T18:37:35.570Z,95146.00
2023-03-15T18:38:35.646Z,95146.00
2023-03-15T18:39:35.673Z,95146.00
2023-03-15T18:40:35.744Z,95152.00
2023-03-15T18:41:35.808Z,95154.00
2023-03-15T18:42:35.859Z,95150.00
2023-03-15T18:43:35.891Z,95144.00
2023-03-15T18:44:35.927Z,95148.00
2023-03-15T18:45:36.226Z,95146.00
2023-03-15T18:46:36.023Z,95144.00
2023-03-15T18:47:35.975Z,95144.00
2023-03-15T18:48:40.890Z,95146.00
2023-03-15T18:49:36.997Z,95148.00
2023-03-15T18:50:35.950Z,95150.00
2023-03-15T18:51:35.945Z,95150.00
2023-03-15T18:52:35.984Z,95150.00
2023-03-15T18:53:35.948Z,95152.00
2023-03-15T18:54:35.954Z,95150.00
2023-03-15T18:55:35.952Z,95150.00
2023-03-15T18:56:35.961Z,95154.00
2023-03-15T18:57:35.931Z,95156.00
2023-03-15T18:58:35.956Z,95158.00
2023-03-15T18:59:35.911Z,95160.00
2023-03-15T19:00:35.885Z,95162.00
2023-03-15T19:01:35.903Z,95162.00
2023-03-15T19:02:35.919Z,95174.00
2023-03-15T19:03:35.882Z,95164.00